sensor_id;sensor_type;location;lat;lon;timestamp;P1;durP1;ratioP1;P2;durP2;ratioP2
48006;SDS011;33771;48.180;11.400;2022-10-16T00:00:40;5.07;;;2.33;;
48006;SDS011;33771;48.180;11.400;2022-10-16T00:03:07;8.38;;;2.60;;
48006;SDS011;33771;48.180;11.400;2022-10-16T00:05:37;3.95;;;1.73;;
48006;SDS011;33771;48.180;11.400;2022-10-16T00:08:05;3.40;;;1.83;;
48006;SDS011;33771;48.180;11.400;2022-10-16T00:10:31;4.25;;;2.10;;
48006;SDS011;33771;48.180;11.400;2022-10-16T00:12:56;4.45;;;2.10;;
48006;SDS011;33771;48.180;11.400;2022-10-16T00:15:22;4.20;;;1.77;;
48006;SDS011;33771;48.180;11.400;2022-10-16T00:17:47;4.43;;;1.90;;
48006;SDS011;33771;48.180;11.400;2022-10-16T00:20:13;3.58;;;2.20;;
48006;SDS011;33771;48.180;11.400;2022-10-16T00:22:38;5.35;;;2.10;;
48006;SDS011;33771;48.180;11.400;2022-10-16T00:25:05;7.28;;;2.83;;
48006;SDS011;33771;48.180;11.400;2022-10-16T00:27:30;4.10;;;1.70;;
48006;SDS011;33771;48.180;11.400;2022-10-16T00:29:56;4.25;;;2.13;;
48006;SDS011;33771;48.180;11.400;2022-10-16T00:32:21;5.90;;;1.83;;
48006;SDS011;33771;48.180;11.400;2022-10-16T00:34:47;4.15;;;2.10;;
48006;SDS011;33771;48.180;11.400;2022-10-16T00:37:13;3.22;;;2.05;;
48006;SDS011;33771;48.180;11.400;2022-10-16T00:39:38;8.68;;;1.85;;
48006;SDS011;33771;48.180;11.400;2022-10-16T00:42:04;6.85;;;2.03;;
48006;SDS011;33771;48.180;11.400;2022-10-16T00:44:44;7.47;;;2.17;;
48006;SDS011;33771;48.180;11.400;2022-10-16T00:47:15;3.78;;;2.30;;
48006;SDS011;33771;48.180;11.400;2022-10-16T00:49:52;4.65;;;2.05;;
48006;SDS011;33771;48.180;11.400;2022-10-16T00:52:23;6.13;;;2.30;;
48006;SDS011;33771;48.180;11.400;2022-10-16T00:54:49;6.63;;;2.10;;
48006;SDS011;33771;48.180;11.400;2022-10-16T00:57:16;5.38;;;1.90;;
48006;SDS011;33771;48.180;11.400;2022-10-16T00:59:42;3.33;;;1.80;;
48006;SDS011;33771;48.180;11.400;2022-10-16T01:02:09;5.07;;;1.85;;
48006;SDS011;33771;48.180;11.400;2022-10-16T01:04:37;5.20;;;1.90;;
48006;SDS011;33771;48.180;11.400;2022-10-16T01:07:33;3.78;;;1.80;;
48006;SDS011;33771;48.180;11.400;2022-10-16T01:12:58;2.88;;;1.90;;
48006;SDS011;33771;48.180;11.400;2022-10-16T01:21:00;4.38;;;2.00;;
48006;SDS011;33771;48.180;11.400;2022-10-16T01:23:36;8.57;;;2.00;;
48006;SDS011;33771;48.180;11.400;2022-10-16T01:26:31;2.95;;;2.00;;
48006;SDS011;33771;48.180;11.400;2022-10-16T01:29:15;4.55;;;2.00;;
48006;SDS011;33771;48.180;11.400;2022-10-16T01:31:58;4.18;;;2.05;;
48006;SDS011;33771;48.180;11.400;2022-10-16T01:34:33;4.35;;;1.67;;
48006;SDS011;33771;48.180;11.400;2022-10-16T01:37:07;4.18;;;1.90;;
48006;SDS011;33771;48.180;11.400;2022-10-16T01:39:40;3.38;;;1.85;;
48006;SDS011;33771;48.180;11.400;2022-10-16T01:42:13;4.45;;;2.00;;
48006;SDS011;33771;48.180;11.400;2022-10-16T01:44:41;4.05;;;1.95;;
48006;SDS011;33771;48.180;11.400;2022-10-16T01:47:10;5.82;;;1.80;;
48006;SDS011;33771;48.180;11.400;2022-10-16T01:49:39;5.53;;;1.92;;
48006;SDS011;33771;48.180;11.400;2022-10-16T01:52:08;4.22;;;1.75;;
48006;SDS011;33771;48.180;11.400;2022-10-16T01:54:37;5.93;;;1.80;;
48006;SDS011;33771;48.180;11.400;2022-10-16T01:57:06;4.18;;;1.70;;
48006;SDS011;33771;48.180;11.400;2022-10-16T01:59:35;2.88;;;2.20;;
48006;SDS011;33771;48.180;11.400;2022-10-16T02:02:06;3.30;;;1.80;;
48006;SDS011;33771;48.180;11.400;2022-10-16T02:04:36;5.28;;;2.00;;
48006;SDS011;33771;48.180;11.400;2022-10-16T02:07:04;2.85;;;1.55;;
48006;SDS011;33771;48.180;11.400;2022-10-16T02:09:32;5.25;;;2.33;;
48006;SDS011;33771;48.180;11.400;2022-10-16T02:11:59;5.13;;;1.80;;
48006;SDS011;33771;48.180;11.400;2022-10-16T02:14:31;2.65;;;1.65;;
48006;SDS011;33771;48.180;11.400;2022-10-16T02:16:57;2.92;;;1.80;;
48006;SDS011;33771;48.180;11.400;2022-10-16T02:19:23;4.57;;;1.60;;
48006;SDS011;33771;48.180;11.400;2022-10-16T02:29:28;3.70;;;1.80;;
48006;SDS011;33771;48.180;11.400;2022-10-16T02:32:01;5.28;;;1.80;;
48006;SDS011;33771;48.180;11.400;2022-10-16T02:34:29;4.07;;;2.10;;
48006;SDS011;33771;48.180;11.400;2022-10-16T02:36:57;3.58;;;1.70;;
48006;SDS011;33771;48.180;11.400;2022-10-16T02:39:23;4.30;;;2.00;;
48006;SDS011;33771;48.180;11.400;2022-10-16T02:41:49;4.97;;;1.90;;
48006;SDS011;33771;48.180;11.400;2022-10-16T02:44:15;3.78;;;1.80;;
48006;SDS011;33771;48.180;11.400;2022-10-16T02:46:40;4.70;;;1.73;;
48006;SDS011;33771;48.180;11.400;2022-10-16T02:49:06;3.72;;;2.00;;
48006;SDS011;33771;48.180;11.400;2022-10-16T02:51:32;4.38;;;1.90;;
48006;SDS011;33771;48.180;11.400;2022-10-16T02:53:57;10.32;;;2.30;;
48006;SDS011;33771;48.180;11.400;2022-10-16T02:56:23;4.68;;;1.98;;
48006;SDS011;33771;48.180;11.400;2022-10-16T02:58:48;4.22;;;1.98;;
48006;SDS011;33771;48.180;11.400;2022-10-16T03:01:14;5.00;;;2.00;;
48006;SDS011;33771;48.180;11.400;2022-10-16T03:03:41;3.95;;;2.00;;
48006;SDS011;33771;48.180;11.400;2022-10-16T03:06:07;6.43;;;2.10;;
48006;SDS011;33771;48.180;11.400;2022-10-16T03:08:33;4.78;;;1.92;;
48006;SDS011;33771;48.180;11.400;2022-10-16T03:10:58;6.20;;;1.80;;
48006;SDS011;33771;48.180;11.400;2022-10-16T03:13:24;5.63;;;1.98;;
48006;SDS011;33771;48.180;11.400;2022-10-16T03:15:49;2.25;;;2.00;;
48006;SDS011;33771;48.180;11.400;2022-10-16T03:18:15;3.90;;;1.95;;
48006;SDS011;33771;48.180;11.400;2022-10-16T03:20:42;2.58;;;1.70;;
48006;SDS011;33771;48.180;11.400;2022-10-16T03:23:08;3.50;;;1.77;;
48006;SDS011;33771;48.180;11.400;2022-10-16T03:25:34;4.70;;;2.17;;
48006;SDS011;33771;48.180;11.400;2022-10-16T03:27:59;2.78;;;1.88;;
48006;SDS011;33771;48.180;11.400;2022-10-16T03:30:25;3.72;;;2.03;;
48006;SDS011;33771;48.180;11.400;2022-10-16T03:32:51;4.10;;;2.33;;
48006;SDS011;33771;48.180;11.400;2022-10-16T03:35:22;6.75;;;2.10;;
48006;SDS011;33771;48.180;11.400;2022-10-16T03:37:49;3.40;;;1.90;;
48006;SDS011;33771;48.180;11.400;2022-10-16T03:40:15;4.80;;;2.03;;
48006;SDS011;33771;48.180;11.400;2022-10-16T03:42:42;4.80;;;2.00;;
48006;SDS011;33771;48.180;11.400;2022-10-16T03:45:08;4.53;;;1.92;;
48006;SDS011;33771;48.180;11.400;2022-10-16T03:47:35;4.95;;;2.03;;
48006;SDS011;33771;48.180;11.400;2022-10-16T03:50:00;6.88;;;1.98;;
48006;SDS011;33771;48.180;11.400;2022-10-16T03:52:26;3.55;;;2.00;;
48006;SDS011;33771;48.180;11.400;2022-10-16T03:54:52;4.03;;;2.17;;
48006;SDS011;33771;48.180;11.400;2022-10-16T03:57:17;3.55;;;2.00;;
48006;SDS011;33771;48.180;11.400;2022-10-16T03:59:43;7.50;;;2.22;;
48006;SDS011;33771;48.180;11.400;2022-10-16T04:02:09;4.82;;;2.05;;
48006;SDS011;33771;48.180;11.400;2022-10-16T04:04:34;2.70;;;1.90;;
48006;SDS011;33771;48.180;11.400;2022-10-16T04:07:00;2.95;;;1.85;;
48006;SDS011;33771;48.180;11.400;2022-10-16T04:09:26;3.83;;;1.75;;
48006;SDS011;33771;48.180;11.400;2022-10-16T04:11:52;2.40;;;1.75;;
48006;SDS011;33771;48.180;11.400;2022-10-16T04:14:17;5.82;;;1.80;;
48006;SDS011;33771;48.180;11.400;2022-10-16T04:16:43;4.75;;;2.45;;
48006;SDS011;33771;48.180;11.400;2022-10-16T04:19:09;5.30;;;2.80;;
48006;SDS011;33771;48.180;11.400;2022-10-16T04:21:36;5.93;;;2.92;;
48006;SDS011;33771;48.180;11.400;2022-10-16T04:24:02;3.92;;;2.70;;
48006;SDS011;33771;48.180;11.400;2022-10-16T04:26:28;4.82;;;2.20;;
48006;SDS011;33771;48.180;11.400;2022-10-16T04:28:53;3.10;;;2.10;;
48006;SDS011;33771;48.180;11.400;2022-10-16T04:31:19;4.68;;;2.30;;
48006;SDS011;33771;48.180;11.400;2022-10-16T04:33:45;3.33;;;2.47;;
48006;SDS011;33771;48.180;11.400;2022-10-16T04:36:11;3.22;;;2.33;;
48006;SDS011;33771;48.180;11.400;2022-10-16T04:38:36;5.47;;;1.80;;
48006;SDS011;33771;48.180;11.400;2022-10-16T04:41:02;5.70;;;2.05;;
48006;SDS011;33771;48.180;11.400;2022-10-16T04:43:29;4.53;;;1.85;;
48006;SDS011;33771;48.180;11.400;2022-10-16T04:45:54;4.53;;;1.95;;
48006;SDS011;33771;48.180;11.400;2022-10-16T04:48:21;5.03;;;2.28;;
48006;SDS011;33771;48.180;11.400;2022-10-16T04:50:47;4.55;;;3.53;;
48006;SDS011;33771;48.180;11.400;2022-10-16T04:53:12;5.93;;;2.78;;
48006;SDS011;33771;48.180;11.400;2022-10-16T04:55:38;5.13;;;2.50;;
48006;SDS011;33771;48.180;11.400;2022-10-16T04:58:04;4.18;;;2.03;;
48006;SDS011;33771;48.180;11.400;2022-10-16T05:00:30;5.97;;;2.15;;
48006;SDS011;33771;48.180;11.400;2022-10-16T05:02:55;3.88;;;2.10;;
48006;SDS011;33771;48.180;11.400;2022-10-16T05:05:22;4.18;;;2.00;;
48006;SDS011;33771;48.180;11.400;2022-10-16T05:07:48;4.40;;;2.17;;
48006;SDS011;33771;48.180;11.400;2022-10-16T05:10:14;5.32;;;2.10;;
48006;SDS011;33771;48.180;11.400;2022-10-16T05:12:40;2.40;;;1.70;;
48006;SDS011;33771;48.180;11.400;2022-10-16T05:15:06;2.50;;;1.77;;
48006;SDS011;33771;48.180;11.400;2022-10-16T05:17:32;7.95;;;4.00;;
48006;SDS011;33771;48.180;11.400;2022-10-16T05:19:57;3.38;;;2.03;;
48006;SDS011;33771;48.180;11.400;2022-10-16T05:22:23;2.97;;;1.70;;
48006;SDS011;33771;48.180;11.400;2022-10-16T05:24:48;4.10;;;1.70;;
48006;SDS011;33771;48.180;11.400;2022-10-16T05:27:14;2.35;;;1.80;;
48006;SDS011;33771;48.180;11.400;2022-10-16T05:29:47;2.83;;;1.88;;
48006;SDS011;33771;48.180;11.400;2022-10-16T05:32:14;6.30;;;1.90;;
48006;SDS011;33771;48.180;11.400;2022-10-16T05:34:40;3.25;;;2.00;;
48006;SDS011;33771;48.180;11.400;2022-10-16T05:37:06;3.58;;;2.13;;
48006;SDS011;33771;48.180;11.400;2022-10-16T05:39:31;3.17;;;2.03;;
48006;SDS011;33771;48.180;11.400;2022-10-16T05:41:57;5.95;;;2.40;;
48006;SDS011;33771;48.180;11.400;2022-10-16T05:44:23;4.35;;;2.28;;
48006;SDS011;33771;48.180;11.400;2022-10-16T05:46:48;9.88;;;2.28;;
48006;SDS011;33771;48.180;11.400;2022-10-16T05:49:14;4.07;;;2.50;;
48006;SDS011;33771;48.180;11.400;2022-10-16T05:51:40;5.30;;;2.85;;
48006;SDS011;33771;48.180;11.400;2022-10-16T05:54:06;3.97;;;2.50;;
48006;SDS011;33771;48.180;11.400;2022-10-16T05:56:32;4.68;;;3.80;;
48006;SDS011;33771;48.180;11.400;2022-10-16T05:58:57;7.78;;;3.20;;
48006;SDS011;33771;48.180;11.400;2022-10-16T06:01:23;6.47;;;3.05;;
48006;SDS011;33771;48.180;11.400;2022-10-16T06:03:50;6.10;;;3.88;;
48006;SDS011;33771;48.180;11.400;2022-10-16T06:06:18;10.45;;;8.07;;
48006;SDS011;33771;48.180;11.400;2022-10-16T06:08:46;11.60;;;8.15;;
48006;SDS011;33771;48.180;11.400;2022-10-16T06:11:14;9.27;;;7.00;;
48006;SDS011;33771;48.180;11.400;2022-10-16T06:13:44;6.85;;;5.88;;
48006;SDS011;33771;48.180;11.400;2022-10-16T06:16:11;7.13;;;5.68;;
48006;SDS011;33771;48.180;11.400;2022-10-16T06:18:37;5.97;;;4.18;;
48006;SDS011;33771;48.180;11.400;2022-10-16T06:21:14;5.13;;;2.90;;
48006;SDS011;33771;48.180;11.400;2022-10-16T06:23:42;4.10;;;3.42;;
48006;SDS011;33771;48.180;11.400;2022-10-16T06:26:09;4.85;;;2.92;;
48006;SDS011;33771;48.180;11.400;2022-10-16T06:28:36;6.25;;;2.85;;
48006;SDS011;33771;48.180;11.400;2022-10-16T06:31:03;3.72;;;2.80;;
48006;SDS011;33771;48.180;11.400;2022-10-16T06:33:30;4.35;;;2.40;;
48006;SDS011;33771;48.180;11.400;2022-10-16T06:36:05;4.60;;;2.40;;
48006;SDS011;33771;48.180;11.400;2022-10-16T06:38:39;19.15;;;15.80;;
48006;SDS011;33771;48.180;11.400;2022-10-16T06:41:06;31.83;;;21.45;;
48006;SDS011;33771;48.180;11.400;2022-10-16T06:43:32;27.92;;;17.40;;
48006;SDS011;33771;48.180;11.400;2022-10-16T06:46:00;22.95;;;11.95;;
48006;SDS011;33771;48.180;11.400;2022-10-16T06:48:26;12.38;;;8.38;;
48006;SDS011;33771;48.180;11.400;2022-10-16T06:53:35;6.97;;;4.03;;
48006;SDS011;33771;48.180;11.400;2022-10-16T06:56:10;10.40;;;3.53;;
48006;SDS011;33771;48.180;11.400;2022-10-16T06:58:38;6.95;;;3.50;;
48006;SDS011;33771;48.180;11.400;2022-10-16T07:01:04;6.53;;;3.28;;
48006;SDS011;33771;48.180;11.400;2022-10-16T07:03:30;5.68;;;3.17;;
48006;SDS011;33771;48.180;11.400;2022-10-16T07:05:56;7.88;;;3.15;;
48006;SDS011;33771;48.180;11.400;2022-10-16T07:08:25;4.43;;;3.08;;
48006;SDS011;33771;48.180;11.400;2022-10-16T07:10:57;5.20;;;3.00;;
48006;SDS011;33771;48.180;11.400;2022-10-16T07:13:24;4.68;;;2.75;;
48006;SDS011;33771;48.180;11.400;2022-10-16T07:15:50;8.57;;;2.40;;
48006;SDS011;33771;48.180;11.400;2022-10-16T07:18:19;5.20;;;2.17;;
48006;SDS011;33771;48.180;11.400;2022-10-16T07:20:45;5.13;;;2.10;;
48006;SDS011;33771;48.180;11.400;2022-10-16T07:23:10;2.95;;;1.80;;
48006;SDS011;33771;48.180;11.400;2022-10-16T07:25:36;4.30;;;2.33;;
48006;SDS011;33771;48.180;11.400;2022-10-16T07:28:01;5.28;;;2.35;;
48006;SDS011;33771;48.180;11.400;2022-10-16T07:30:27;4.72;;;2.10;;
48006;SDS011;33771;48.180;11.400;2022-10-16T07:32:53;7.03;;;2.40;;
48006;SDS011;33771;48.180;11.400;2022-10-16T07:35:18;3.78;;;1.85;;
48006;SDS011;33771;48.180;11.400;2022-10-16T07:37:45;3.20;;;1.90;;
48006;SDS011;33771;48.180;11.400;2022-10-16T07:40:11;5.30;;;2.08;;
48006;SDS011;33771;48.180;11.400;2022-10-16T07:42:36;5.18;;;2.03;;
48006;SDS011;33771;48.180;11.400;2022-10-16T07:45:02;2.20;;;1.63;;
48006;SDS011;33771;48.180;11.400;2022-10-16T07:47:28;2.30;;;1.90;;
48006;SDS011;33771;48.180;11.400;2022-10-16T07:49:53;4.43;;;2.00;;
48006;SDS011;33771;48.180;11.400;2022-10-16T07:52:19;5.60;;;1.83;;
48006;SDS011;33771;48.180;11.400;2022-10-16T07:54:45;5.82;;;2.53;;
48006;SDS011;33771;48.180;11.400;2022-10-16T07:57:10;4.10;;;2.30;;
48006;SDS011;33771;48.180;11.400;2022-10-16T07:59:39;4.30;;;2.03;;
48006;SDS011;33771;48.180;11.400;2022-10-16T08:02:05;3.55;;;2.08;;
48006;SDS011;33771;48.180;11.400;2022-10-16T08:04:30;4.38;;;2.00;;
48006;SDS011;33771;48.180;11.400;2022-10-16T08:06:56;5.07;;;2.28;;
48006;SDS011;33771;48.180;11.400;2022-10-16T08:09:21;3.60;;;2.00;;
48006;SDS011;33771;48.180;11.400;2022-10-16T08:11:47;4.32;;;2.00;;
48006;SDS011;33771;48.180;11.400;2022-10-16T08:14:12;7.10;;;2.40;;
48006;SDS011;33771;48.180;11.400;2022-10-16T08:16:38;2.35;;;1.80;;
48006;SDS011;33771;48.180;11.400;2022-10-16T08:19:03;3.70;;;2.05;;
48006;SDS011;33771;48.180;11.400;2022-10-16T08:21:29;2.70;;;2.08;;
48006;SDS011;33771;48.180;11.400;2022-10-16T08:23:54;9.98;;;2.10;;
48006;SDS011;33771;48.180;11.400;2022-10-16T08:26:20;2.75;;;2.00;;
48006;SDS011;33771;48.180;11.400;2022-10-16T08:28:48;3.90;;;2.03;;
48006;SDS011;33771;48.180;11.400;2022-10-16T08:31:15;4.40;;;2.30;;
48006;SDS011;33771;48.180;11.400;2022-10-16T08:33:42;3.38;;;2.10;;
48006;SDS011;33771;48.180;11.400;2022-10-16T08:36:10;2.95;;;1.98;;
48006;SDS011;33771;48.180;11.400;2022-10-16T08:38:36;5.50;;;2.47;;
48006;SDS011;33771;48.180;11.400;2022-10-16T08:46:54;2.83;;;2.22;;
48006;SDS011;33771;48.180;11.400;2022-10-16T08:49:26;3.08;;;2.25;;
48006;SDS011;33771;48.180;11.400;2022-10-16T08:51:52;3.63;;;1.98;;
48006;SDS011;33771;48.180;11.400;2022-10-16T08:54:22;4.25;;;2.10;;
48006;SDS011;33771;48.180;11.400;2022-10-16T08:57:19;3.72;;;2.08;;
48006;SDS011;33771;48.180;11.400;2022-10-16T08:59:46;5.65;;;2.50;;
48006;SDS011;33771;48.180;11.400;2022-10-16T09:02:27;3.22;;;1.90;;
48006;SDS011;33771;48.180;11.400;2022-10-16T09:10:26;3.05;;;1.98;;
48006;SDS011;33771;48.180;11.400;2022-10-16T09:13:11;3.65;;;2.00;;
48006;SDS011;33771;48.180;11.400;2022-10-16T09:18:37;2.40;;;1.80;;
48006;SDS011;33771;48.180;11.400;2022-10-16T09:21:29;2.35;;;1.80;;
48006;SDS011;33771;48.180;11.400;2022-10-16T09:24:12;2.55;;;1.70;;
48006;SDS011;33771;48.180;11.400;2022-10-16T09:26:39;5.75;;;2.17;;
48006;SDS011;33771;48.180;11.400;2022-10-16T09:29:05;2.60;;;2.03;;
48006;SDS011;33771;48.180;11.400;2022-10-16T09:31:31;5.10;;;2.00;;
48006;SDS011;33771;48.180;11.400;2022-10-16T09:34:02;3.70;;;1.85;;
48006;SDS011;33771;48.180;11.400;2022-10-16T09:36:31;5.50;;;1.90;;
48006;SDS011;33771;48.180;11.400;2022-10-16T09:39:07;5.38;;;1.70;;
48006;SDS011;33771;48.180;11.400;2022-10-16T09:41:37;2.95;;;1.80;;
48006;SDS011;33771;48.180;11.400;2022-10-16T09:47:12;2.70;;;1.80;;
48006;SDS011;33771;48.180;11.400;2022-10-16T09:49:38;4.57;;;1.60;;
48006;SDS011;33771;48.180;11.400;2022-10-16T09:52:04;3.38;;;2.00;;
48006;SDS011;33771;48.180;11.400;2022-10-16T09:54:53;3.50;;;1.60;;
48006;SDS011;33771;48.180;11.400;2022-10-16T09:57:26;3.90;;;1.77;;
48006;SDS011;33771;48.180;11.400;2022-10-16T09:59:56;2.78;;;1.65;;
48006;SDS011;33771;48.180;11.400;2022-10-16T10:02:43;2.47;;;1.73;;
48006;SDS011;33771;48.180;11.400;2022-10-16T10:05:19;4.35;;;1.70;;
48006;SDS011;33771;48.180;11.400;2022-10-16T10:07:59;3.10;;;1.75;;
48006;SDS011;33771;48.180;11.400;2022-10-16T10:10:32;2.70;;;1.77;;
48006;SDS011;33771;48.180;11.400;2022-10-16T10:13:02;2.55;;;1.75;;
48006;SDS011;33771;48.180;11.400;2022-10-16T10:15:27;2.28;;;1.73;;
48006;SDS011;33771;48.180;11.400;2022-10-16T10:17:59;7.13;;;1.80;;
48006;SDS011;33771;48.180;11.400;2022-10-16T10:20:31;4.03;;;1.60;;
48006;SDS011;33771;48.180;11.400;2022-10-16T10:22:59;3.15;;;1.50;;
48006;SDS011;33771;48.180;11.400;2022-10-16T10:25:28;2.25;;;1.77;;
48006;SDS011;33771;48.180;11.400;2022-10-16T10:28:10;3.80;;;1.50;;
48006;SDS011;33771;48.180;11.400;2022-10-16T10:31:06;2.30;;;1.58;;
48006;SDS011;33771;48.180;11.400;2022-10-16T10:34:01;5.65;;;2.28;;
48006;SDS011;33771;48.180;11.400;2022-10-16T10:36:41;3.50;;;1.70;;
48006;SDS011;33771;48.180;11.400;2022-10-16T10:39:28;4.13;;;1.60;;
48006;SDS011;33771;48.180;11.400;2022-10-16T10:42:04;4.93;;;2.00;;
48006;SDS011;33771;48.180;11.400;2022-10-16T11:00:57;3.28;;;1.40;;
48006;SDS011;33771;48.180;11.400;2022-10-16T11:06:17;2.70;;;1.55;;
48006;SDS011;33771;48.180;11.400;2022-10-16T11:08:53;5.97;;;1.75;;
48006;SDS011;33771;48.180;11.400;2022-10-16T11:14:30;4.72;;;1.63;;
48006;SDS011;33771;48.180;11.400;2022-10-16T11:19:42;5.75;;;1.80;;
48006;SDS011;33771;48.180;11.400;2022-10-16T11:22:28;2.47;;;1.55;;
48006;SDS011;33771;48.180;11.400;2022-10-16T11:27:56;2.22;;;1.50;;
48006;SDS011;33771;48.180;11.400;2022-10-16T11:30:32;5.97;;;1.42;;
48006;SDS011;33771;48.180;11.400;2022-10-16T11:38:38;1.52;;;1.10;;
48006;SDS011;33771;48.180;11.400;2022-10-16T11:41:21;1.95;;;1.30;;
48006;SDS011;33771;48.180;11.400;2022-10-16T11:46:38;6.55;;;1.10;;
48006;SDS011;33771;48.180;11.400;2022-10-16T11:49:12;1.17;;;1.00;;
48006;SDS011;33771;48.180;11.400;2022-10-16T11:52:01;1.63;;;1.20;;
48006;SDS011;33771;48.180;11.400;2022-10-16T11:54:52;2.50;;;1.00;;
48006;SDS011;33771;48.180;11.400;2022-10-16T11:57:44;1.25;;;1.00;;
48006;SDS011;33771;48.180;11.400;2022-10-16T12:00:28;3.17;;;1.10;;
48006;SDS011;33771;48.180;11.400;2022-10-16T12:08:57;1.95;;;1.02;;
48006;SDS011;33771;48.180;11.400;2022-10-16T12:16:38;0.90;;;0.70;;
48006;SDS011;33771;48.180;11.400;2022-10-16T12:19:15;5.47;;;0.85;;
48006;SDS011;33771;48.180;11.400;2022-10-16T12:21:43;2.47;;;0.73;;
48006;SDS011;33771;48.180;11.400;2022-10-16T12:27:00;3.60;;;0.90;;
48006;SDS011;33771;48.180;11.400;2022-10-16T12:29:45;1.75;;;0.95;;
48006;SDS011;33771;48.180;11.400;2022-10-16T12:35:00;3.28;;;0.77;;
48006;SDS011;33771;48.180;11.400;2022-10-16T12:37:33;1.70;;;0.60;;
48006;SDS011;33771;48.180;11.400;2022-10-16T12:42:41;1.05;;;0.60;;
48006;SDS011;33771;48.180;11.400;2022-10-16T12:48:21;1.27;;;0.60;;
48006;SDS011;33771;48.180;11.400;2022-10-16T12:50:47;1.77;;;0.90;;
48006;SDS011;33771;48.180;11.400;2022-10-16T12:53:19;0.77;;;0.60;;
48006;SDS011;33771;48.180;11.400;2022-10-16T13:01:22;1.20;;;0.80;;
48006;SDS011;33771;48.180;11.400;2022-10-16T13:06:46;1.60;;;0.60;;
48006;SDS011;33771;48.180;11.400;2022-10-16T13:09:34;1.92;;;0.90;;
48006;SDS011;33771;48.180;11.400;2022-10-16T13:14:55;1.35;;;0.80;;
48006;SDS011;33771;48.180;11.400;2022-10-16T13:17:42;1.75;;;1.00;;
48006;SDS011;33771;48.180;11.400;2022-10-16T13:26:00;0.68;;;0.60;;
48006;SDS011;33771;48.180;11.400;2022-10-16T13:28:46;1.60;;;0.70;;
48006;SDS011;33771;48.180;11.400;2022-10-16T13:31:17;1.20;;;0.75;;
48006;SDS011;33771;48.180;11.400;2022-10-16T13:33:47;1.98;;;0.82;;
48006;SDS011;33771;48.180;11.400;2022-10-16T13:36:23;2.20;;;0.90;;
48006;SDS011;33771;48.180;11.400;2022-10-16T13:39:27;1.17;;;0.80;;
48006;SDS011;33771;48.180;11.400;2022-10-16T13:41:57;1.30;;;0.82;;
48006;SDS011;33771;48.180;11.400;2022-10-16T13:44:27;1.92;;;0.80;;
48006;SDS011;33771;48.180;11.400;2022-10-16T13:46:59;2.88;;;0.82;;
48006;SDS011;33771;48.180;11.400;2022-10-16T13:49:26;1.27;;;0.82;;
48006;SDS011;33771;48.180;11.400;2022-10-16T13:51:56;2.40;;;1.05;;
48006;SDS011;33771;48.180;11.400;2022-10-16T13:54:23;2.35;;;0.90;;
48006;SDS011;33771;48.180;11.400;2022-10-16T13:56:50;1.20;;;0.77;;
48006;SDS011;33771;48.180;11.400;2022-10-16T13:59:26;2.35;;;0.80;;
48006;SDS011;33771;48.180;11.400;2022-10-16T14:01:58;2.83;;;1.13;;
48006;SDS011;33771;48.180;11.400;2022-10-16T14:04:25;1.95;;;1.10;;
48006;SDS011;33771;48.180;11.400;2022-10-16T14:06:55;1.42;;;0.95;;
48006;SDS011;33771;48.180;11.400;2022-10-16T14:09:24;1.75;;;1.10;;
48006;SDS011;33771;48.180;11.400;2022-10-16T14:12:03;0.95;;;0.82;;
48006;SDS011;33771;48.180;11.400;2022-10-16T14:14:40;1.85;;;0.95;;
48006;SDS011;33771;48.180;11.400;2022-10-16T14:17:18;2.08;;;0.90;;
48006;SDS011;33771;48.180;11.400;2022-10-16T14:19:48;3.55;;;1.30;;
48006;SDS011;33771;48.180;11.400;2022-10-16T14:22:21;1.75;;;1.20;;
48006;SDS011;33771;48.180;11.400;2022-10-16T14:25:16;1.50;;;1.05;;
48006;SDS011;33771;48.180;11.400;2022-10-16T14:30:57;1.73;;;0.93;;
48006;SDS011;33771;48.180;11.400;2022-10-16T14:36:12;2.78;;;1.90;;
48006;SDS011;33771;48.180;11.400;2022-10-16T14:38:40;6.25;;;4.20;;
48006;SDS011;33771;48.180;11.400;2022-10-16T14:41:07;2.72;;;1.60;;
48006;SDS011;33771;48.180;11.400;2022-10-16T14:43:34;2.33;;;1.10;;
48006;SDS011;33771;48.180;11.400;2022-10-16T14:46:12;1.97;;;1.27;;
48006;SDS011;33771;48.180;11.400;2022-10-16T14:48:42;6.97;;;1.23;;
48006;SDS011;33771;48.180;11.400;2022-10-16T14:51:14;3.42;;;1.20;;
48006;SDS011;33771;48.180;11.400;2022-10-16T14:53:41;2.38;;;1.10;;
48006;SDS011;33771;48.180;11.400;2022-10-16T14:56:07;4.13;;;1.30;;
48006;SDS011;33771;48.180;11.400;2022-10-16T14:58:39;2.92;;;1.17;;
48006;SDS011;33771;48.180;11.400;2022-10-16T15:01:04;4.82;;;1.35;;
48006;SDS011;33771;48.180;11.400;2022-10-16T15:03:31;4.75;;;1.40;;
48006;SDS011;33771;48.180;11.400;2022-10-16T15:05:57;2.65;;;1.30;;
48006;SDS011;33771;48.180;11.400;2022-10-16T15:08:22;3.67;;;1.20;;
48006;SDS011;33771;48.180;11.400;2022-10-16T15:10:48;3.70;;;1.30;;
48006;SDS011;33771;48.180;11.400;2022-10-16T15:13:14;2.45;;;1.40;;
48006;SDS011;33771;48.180;11.400;2022-10-16T15:15:41;1.88;;;1.30;;
48006;SDS011;33771;48.180;11.400;2022-10-16T15:18:11;1.90;;;1.35;;
48006;SDS011;33771;48.180;11.400;2022-10-16T15:20:39;3.03;;;1.10;;
48006;SDS011;33771;48.180;11.400;2022-10-16T15:23:15;6.35;;;1.33;;
48006;SDS011;33771;48.180;11.400;2022-10-16T15:28:13;2.20;;;1.38;;
48006;SDS011;33771;48.180;11.400;2022-10-16T15:30:40;2.60;;;1.20;;
48006;SDS011;33771;48.180;11.400;2022-10-16T15:33:10;2.95;;;1.33;;
48006;SDS011;33771;48.180;11.400;2022-10-16T15:35:38;4.03;;;1.20;;
48006;SDS011;33771;48.180;11.400;2022-10-16T15:38:04;3.70;;;1.13;;
48006;SDS011;33771;48.180;11.400;2022-10-16T15:40:29;3.08;;;1.30;;
48006;SDS011;33771;48.180;11.400;2022-10-16T15:42:55;1.92;;;1.17;;
48006;SDS011;33771;48.180;11.400;2022-10-16T15:45:21;2.10;;;1.10;;
48006;SDS011;33771;48.180;11.400;2022-10-16T15:47:46;2.50;;;1.30;;
48006;SDS011;33771;48.180;11.400;2022-10-16T15:50:13;2.03;;;1.20;;
48006;SDS011;33771;48.180;11.400;2022-10-16T15:52:40;2.67;;;1.20;;
48006;SDS011;33771;48.180;11.400;2022-10-16T15:55:10;5.32;;;1.30;;
48006;SDS011;33771;48.180;11.400;2022-10-16T15:57:38;2.70;;;1.20;;
48006;SDS011;33771;48.180;11.400;2022-10-16T16:00:09;6.15;;;1.38;;
48006;SDS011;33771;48.180;11.400;2022-10-16T16:02:36;4.47;;;1.30;;
48006;SDS011;33771;48.180;11.400;2022-10-16T16:05:02;2.63;;;1.50;;
48006;SDS011;33771;48.180;11.400;2022-10-16T16:07:28;3.90;;;1.30;;
48006;SDS011;33771;48.180;11.400;2022-10-16T16:09:59;4.00;;;1.40;;
48006;SDS011;33771;48.180;11.400;2022-10-16T16:12:25;2.72;;;1.42;;
48006;SDS011;33771;48.180;11.400;2022-10-16T16:14:51;3.42;;;1.60;;
48006;SDS011;33771;48.180;11.400;2022-10-16T16:17:16;3.40;;;1.40;;
48006;SDS011;33771;48.180;11.400;2022-10-16T16:19:43;3.63;;;1.40;;
48006;SDS011;33771;48.180;11.400;2022-10-16T16:22:08;3.67;;;1.48;;
48006;SDS011;33771;48.180;11.400;2022-10-16T16:24:34;2.35;;;1.50;;
48006;SDS011;33771;48.180;11.400;2022-10-16T16:26:59;4.80;;;1.70;;
48006;SDS011;33771;48.180;11.400;2022-10-16T16:29:25;4.05;;;1.50;;
48006;SDS011;33771;48.180;11.400;2022-10-16T16:31:50;3.22;;;1.50;;
48006;SDS011;33771;48.180;11.400;2022-10-16T16:34:22;3.55;;;1.65;;
48006;SDS011;33771;48.180;11.400;2022-10-16T16:36:49;3.38;;;1.52;;
48006;SDS011;33771;48.180;11.400;2022-10-16T16:39:15;2.50;;;1.50;;
48006;SDS011;33771;48.180;11.400;2022-10-16T16:41:40;3.35;;;2.00;;
48006;SDS011;33771;48.180;11.400;2022-10-16T16:44:07;3.63;;;1.85;;
48006;SDS011;33771;48.180;11.400;2022-10-16T16:46:35;3.60;;;1.92;;